Terminal Aerodrome Forecast
Issued by NWS

Home | Current Version | Previous Version | Text Only | Print | Product List | Glossary On
Versions: 1 2 3 4 5 6 7 8 9 10 11 12 13 14 15 16 17 18 19
986
FTUS42 KKEY 190837 AAA
TAFMTH
TAF AMD
KMTH 190837Z 1909/2006 09007KT P6SM FEW030
     FM200500 10008KT P6SM VCSH SCT026 SCT040=

USA.gov is the U.S. government's official web portal to all federal, state and local government web resources and services.